Time;durP1;ratioP1;P1;durP2;ratioP2;P2;SDS_P1;SDS_P2;PMS_P1;PMS_P2;Temp;Humidity;BMP_temperature;BMP_pressure;BME280_temperature;BME280_humidity;BME280_pressure;Samples;Min_cycle;Max_cycle;Signal;HPM_P1;HPM_P2
2022/08/20 00:00:49;;;;;;;16.30;6.18;;;768.10;1561.60;;;;;;4995512;28;20018;-85
2022/08/20 00:03:26;;;;;;;22.83;5.50;;;768.10;1561.60;;;;;;4995392;28;20518;-85
2022/08/20 00:06:00;;;;;;;19.30;6.28;;;768.10;1587.20;;;;;;4995388;28;20050;-86
2022/08/20 00:08:27;;;;;;;15.98;5.40;;;768.00;1587.20;;;;;;4994834;28;20468;-80
2022/08/20 00:10:54;;;;;;;14.63;5.72;;;768.00;1587.20;;;;;;4994204;28;20038;-78
2022/08/20 00:13:26;;;;;;;18.35;4.47;;;743.30;1612.80;;;;;;4994458;28;20491;-83
2022/08/20 00:15:53;;;;;;;17.05;5.88;;;743.30;1612.80;;;;;;4993755;28;20030;-79
2022/08/20 00:18:20;;;;;;;18.50;5.70;;;743.20;1612.80;;;;;;4994019;28;20026;-85
2022/08/20 00:20:49;;;;;;;17.10;5.70;;;743.00;1638.40;;;;;;4976100;28;20045;-79
2022/08/20 00:23:16;;;;;;;12.38;5.07;;;743.00;1664.00;;;;;;4993912;28;20033;-83
2022/08/20 00:25:42;;;;;;;20.35;6.38;;;743.00;1664.00;;;;;;4993850;28;20029;-77
2022/08/20 00:28:09;;;;;;;19.30;5.43;;;743.10;1664.00;;;;;;4993871;28;20088;-81
2022/08/20 00:30:35;;;;;;;13.10;5.32;;;743.20;1664.00;;;;;;4993766;28;20025;-79
2022/08/20 00:33:11;;;;;;;17.88;5.57;;;743.10;1664.00;;;;;;4994387;28;20034;-80
2022/08/20 00:35:39;;;;;;;;;;;743.20;1715.20;;;;;;4995218;28;20464;-81
2022/08/20 00:38:05;;;;;;;16.02;5.30;;;742.90;1792.00;;;;;;4994657;28;20004;-81
2022/08/20 00:40:38;;;;;;;12.50;5.22;;;742.70;1868.80;;;;;;4977458;28;20479;-77
2022/08/20 00:43:22;;;;;;;18.45;5.90;;;742.60;1868.80;;;;;;4994466;28;20136;-84
2022/08/20 00:45:49;;;;;;;11.50;5.78;;;717.70;1945.60;;;;;;4994720;28;20046;-79
2022/08/20 00:48:15;;;;;;;15.32;5.65;;;717.70;1996.80;;;;;;4994653;28;20030;-79
2022/08/20 00:50:41;;;;;;;16.73;5.95;;;717.60;1971.20;;;;;;4994280;28;20084;-80
2022/08/20 00:53:07;;;;;;;14.38;4.68;;;717.50;1920.00;;;;;;4994198;28;20062;-85
2022/08/20 00:55:34;;;;;;;17.85;6.20;;;717.60;1894.40;;;;;;4994450;28;20036;-81
2022/08/20 00:58:06;;;;;;;17.15;5.57;;;717.60;1894.40;;;;;;4993834;28;20035;-82
2022/08/20 01:00:38;;;;;;;22.05;5.93;;;717.50;1920.00;;;;;;4976801;28;20439;-79
2022/08/20 01:03:10;;;;;;;17.27;5.13;;;717.70;1766.40;;;;;;4977171;28;20031;-80
2022/08/20 01:05:39;;;;;;;18.25;6.18;;;717.60;1740.80;;;;;;4994419;28;20093;-80
2022/08/20 01:08:05;;;;;;;17.13;5.43;;;717.40;1766.40;;;;;;4994442;28;20106;-85
2022/08/20 01:10:37;;;;;;;17.27;5.15;;;717.10;1766.40;;;;;;4994301;28;20027;-84
2022/08/20 01:13:08;;;;;;;16.60;5.35;;;717.20;1766.40;;;;;;4977016;28;20073;-81
2022/08/20 01:15:38;;;;;;;25.42;5.63;;;717.40;1766.40;;;;;;4994591;28;20450;-82
2022/08/20 01:18:06;;;;;;;17.77;5.20;;;717.60;1766.40;;;;;;4993665;28;20041;-79
2022/08/20 01:20:44;;;;;;;23.65;4.95;;;717.70;1740.80;;;;;;4994333;28;20026;-82
2022/08/20 01:23:26;;;;;;;22.27;5.93;;;742.40;1766.40;;;;;;4994114;28;20033;-81
2022/08/20 01:26:12;;;;;;;18.35;5.55;;;742.50;1766.40;;;;;;4994147;28;20049;-80
2022/08/20 01:28:53;;;;;;;15.40;6.07;;;717.70;1689.60;;;;;;4994112;28;20027;-76
2022/08/20 01:31:24;;;;;;;18.08;5.75;;;717.60;1715.20;;;;;;4994397;28;20540;-76
2022/08/20 01:33:52;;;;;;;15.63;5.03;;;717.60;1689.60;;;;;;4976778;28;20040;-79
2022/08/20 01:36:30;;;;;;;12.77;5.07;;;717.70;1664.00;;;;;;4993574;28;20043;-77
2022/08/20 01:38:58;;;;;;;15.77;4.40;;;742.50;1664.00;;;;;;4994040;28;20022;-75
2022/08/20 01:41:52;;;;;;;19.77;5.63;;;742.60;1638.40;;;;;;4993925;28;20050;-81
2022/08/20 01:44:19;;;;;;;17.60;4.75;;;742.60;1638.40;;;;;;4993954;28;20034;-78
2022/08/20 01:46:47;;;;;;;14.90;5.18;;;742.50;1638.40;;;;;;4976837;28;20032;-83
2022/08/20 01:49:24;;;;;;;17.13;5.43;;;742.50;1664.00;;;;;;4993777;28;20026;-75
2022/08/20 01:51:56;;;;;;;15.95;4.65;;;742.80;1612.80;;;;;;4974184;28;20030;-76
2022/08/20 01:54:23;;;;;;;20.45;5.80;;;742.80;1638.40;;;;;;4974337;28;20059;-75
2022/08/20 01:57:09;;;;;;;11.07;5.25;;;742.80;1612.80;;;;;;4974343;28;20035;-74
2022/08/20 01:59:34;;;;;;;19.05;5.22;;;742.80;1612.80;;;;;;4974464;28;20098;-81
2022/08/20 02:02:01;;;;;;;16.98;5.90;;;742.80;1638.40;;;;;;4956812;28;20122;-76
2022/08/20 02:04:28;;;;;;;12.45;4.80;;;742.90;1638.40;;;;;;4974261;28;20031;-78
2022/08/20 02:06:56;;;;;;;15.20;5.25;;;742.80;1638.40;;;;;;4974287;28;20023;-81
2022/08/20 02:09:26;;;;;;;14.65;4.90;;;742.80;1638.40;;;;;;4974287;28;20042;-74
2022/08/20 02:11:52;;;;;;;15.82;5.70;;;742.80;1638.40;;;;;;4978085;28;20133;-82
2022/08/20 02:14:19;;;;;;;18.92;5.55;;;742.80;1612.80;;;;;;4978215;28;20093;-81
2022/08/20 02:16:45;;;;;;;17.10;5.47;;;742.80;1612.80;;;;;;4977924;28;20081;-80
2022/08/20 02:19:20;;;;;;;13.68;4.82;;;742.90;1612.80;;;;;;4961042;28;20031;-75
2022/08/20 02:21:50;;;;;;;13.77;4.72;;;742.60;1664.00;;;;;;4960752;28;20074;-80
2022/08/20 02:24:17;;;;;;;12.65;5.43;;;742.40;1715.20;;;;;;4960546;28;20122;-74
2022/08/20 02:26:43;;;;;;;21.10;5.60;;;742.50;1740.80;;;;;;4977791;28;20150;-76
2022/08/20 02:29:10;;;;;;;20.58;4.78;;;742.40;1766.40;;;;;;4977871;28;20474;-76
2022/08/20 02:31:37;;;;;;;14.23;4.38;;;742.50;1792.00;;;;;;4977824;28;20031;-76
2022/08/20 02:34:04;;;;;;;21.20;5.85;;;717.60;1817.60;;;;;;4977737;28;20058;-76
2022/08/20 02:36:30;;;;;;;13.30;5.35;;;717.40;1894.40;;;;;;4977563;28;20035;-76
2022/08/20 02:38:56;;;;;;;19.88;5.68;;;717.00;1945.60;;;;;;4960277;28;20030;-77
2022/08/20 02:41:22;;;;;;;13.98;6.03;;;717.10;1996.80;;;;;;4960465;28;20043;-83
2022/08/20 02:43:50;;;;;;;23.80;6.15;;;717.10;2022.40;;;;;;4977641;28;20025;-76
2022/08/20 02:46:18;;;;;;;15.20;6.65;;;717.10;2073.60;;;;;;4977497;28;20019;-81
2022/08/20 02:48:44;;;;;;;16.77;6.75;;;716.80;2176.00;;;;;;4977515;28;20027;-78
2022/08/20 02:51:10;;;;;;;17.35;7.50;;;692.10;2278.40;;;;;;4991597;28;20471;-76
2022/08/20 02:53:38;;;;;;;18.58;8.18;;;692.00;2355.20;;;;;;4996646;28;20484;-80
2022/08/20 02:56:05;;;;;;;21.42;8.60;;;692.00;2432.00;;;;;;4996787;28;20547;-76
2022/08/20 02:58:31;;;;;;;20.52;8.25;;;691.80;2432.00;;;;;;4996826;28;20034;-77
2022/08/20 03:00:57;;;;;;;14.68;7.47;;;691.80;2432.00;;;;;;4996828;28;20101;-77
2022/08/20 03:03:23;;;;;;;16.38;7.10;;;691.70;2432.00;;;;;;4996304;28;20026;-76
2022/08/20 03:05:56;;;;;;;20.52;8.07;;;691.70;2432.00;;;;;;4995384;28;20023;-76
2022/08/20 03:08:22;;;;;;;19.40;8.65;;;691.70;2432.00;;;;;;4978705;28;20037;-77
2022/08/20 03:10:49;;;;;;;16.90;8.73;;;691.70;2432.00;;;;;;4996296;28;20022;-76
2022/08/20 03:13:16;;;;;;;19.63;8.40;;;691.40;2432.00;;;;;;4996150;28;20026;-75
2022/08/20 03:15:45;;;;;;;16.15;8.40;;;691.60;2432.00;;;;;;4996237;28;20469;-76
2022/08/20 03:18:11;;;;;;;19.58;7.88;;;691.20;2432.00;;;;;;4996309;28;20404;-75
2022/08/20 03:20:38;;;;;;;24.77;8.52;;;666.40;2432.00;;;;;;4996107;28;20034;-80
2022/08/20 03:23:04;;;;;;;17.02;8.15;;;666.40;2432.00;;;;;;4994731;28;20027;-74
2022/08/20 03:25:30;;;;;;;21.05;8.80;;;691.20;2432.00;;;;;;4996140;28;20380;-75
2022/08/20 03:27:56;;;;;;;17.98;8.73;;;666.50;2432.00;;;;;;4996134;28;20025;-81
2022/08/20 03:30:25;;;;;;;19.15;8.02;;;691.20;2432.00;;;;;;4995960;28;20488;-80
2022/08/20 03:32:51;;;;;;;20.90;7.47;;;691.30;2432.00;;;;;;4995885;28;20026;-78
2022/08/20 03:35:19;;;;;;;20.42;9.90;;;691.30;2432.00;;;;;;4996068;28;20037;-79
2022/08/20 03:37:45;;;;;;;17.88;8.63;;;691.20;2432.00;;;;;;4995690;28;20085;-76
2022/08/20 03:40:15;;;;;;;14.52;8.23;;;691.50;2432.00;;;;;;4995873;28;20053;-79
2022/08/20 03:42:41;;;;;;;21.90;8.85;;;691.40;2432.00;;;;;;4995708;28;20508;-80
2022/08/20 03:45:09;;;;;;;17.98;8.82;;;691.40;2432.00;;;;;;4988725;28;20031;-77
2022/08/20 03:47:35;;;;;;;15.95;8.73;;;691.50;2432.00;;;;;;4980892;28;20034;-78
2022/08/20 03:50:03;;;;;;;24.88;9.93;;;691.40;2432.00;;;;;;4979697;28;20081;-78
2022/08/20 03:52:29;;;;;;;16.77;9.45;;;691.30;2432.00;;;;;;4984534;28;20062;-82
2022/08/20 03:54:55;;;;;;;22.95;9.48;;;666.50;2432.00;;;;;;4983851;28;20061;-79
2022/08/20 03:57:22;;;;;;;17.95;9.05;;;666.50;2432.00;;;;;;4983649;28;20093;-75
2022/08/20 03:59:47;;;;;;;20.42;9.65;;;691.20;2432.00;;;;;;4982548;28;20034;-80
2022/08/20 04:02:13;;;;;;;18.17;9.80;;;666.50;2432.00;;;;;;4981464;28;20085;-77
2022/08/20 04:04:40;;;;;;;20.42;10.02;;;691.20;2432.00;;;;;;4980115;28;20443;-83
2022/08/20 04:07:11;;;;;;;20.75;8.85;;;691.30;2432.00;;;;;;4979945;28;20027;-77
2022/08/20 04:09:38;;;;;;;20.67;9.98;;;666.50;2432.00;;;;;;4977282;28;20069;-76
2022/08/20 04:12:05;;;;;;;23.75;9.45;;;666.40;2432.00;;;;;;4981180;28;20109;-76
2022/08/20 04:14:32;;;;;;;16.65;10.00;;;666.50;2432.00;;;;;;4963874;28;20046;-79
2022/08/20 04:16:57;;;;;;;15.60;9.48;;;666.50;2432.00;;;;;;4978469;28;20034;-76
2022/08/20 04:19:23;;;;;;;26.38;10.80;;;666.50;2432.00;;;;;;4979358;28;20076;-79
2022/08/20 04:21:49;;;;;;;27.00;10.93;;;666.30;2432.00;;;;;;4975385;28;20042;-77
2022/08/20 04:24:15;;;;;;;20.23;10.40;;;666.20;2432.00;;;;;;4977556;28;20031;-80
2022/08/20 04:26:41;;;;;;;22.75;10.88;;;665.90;2432.00;;;;;;4982298;28;20015;-81
2022/08/20 04:29:07;;;;;;;18.77;9.82;;;640.90;2432.00;;;;;;4972082;28;20178;-81
2022/08/20 04:31:33;;;;;;;20.52;9.38;;;665.60;2432.00;;;;;;4973810;28;20384;-84
2022/08/20 04:34:06;;;;;;;20.40;10.05;;;665.70;2432.00;;;;;;4979917;28;20484;-75
2022/08/20 04:36:33;;;;;;;23.58;9.25;;;665.70;2432.00;;;;;;4979941;28;20483;-83
2022/08/20 04:39:00;;;;;;;20.75;9.50;;;665.70;2432.00;;;;;;4975632;28;20023;-85
2022/08/20 04:41:26;;;;;;;27.35;10.73;;;665.60;2432.00;;;;;;4981714;28;20105;-81
2022/08/20 04:43:54;;;;;;;21.70;10.40;;;665.70;2432.00;;;;;;4978791;28;20027;-83
2022/08/20 04:46:24;;;;;;;25.65;11.80;;;665.90;2432.00;;;;;;4978589;28;20019;-83
2022/08/20 04:48:49;;;;;;;27.92;9.95;;;665.90;2432.00;;;;;;4978450;28;20464;-74
2022/08/20 04:51:16;;;;;;;21.33;10.38;;;665.80;2432.00;;;;;;4975063;28;20114;-83
2022/08/20 04:53:41;;;;;;;25.38;10.88;;;665.90;2432.00;;;;;;4980632;28;20050;-83
2022/08/20 04:56:08;;;;;;;23.23;10.10;;;666.20;2432.00;;;;;;4978680;28;20476;-76
2022/08/20 04:58:35;;;;;;;30.60;10.73;;;666.30;2432.00;;;;;;4984013;28;20459;-73
2022/08/20 05:01:04;;;;;;;27.27;12.52;;;666.00;2432.00;;;;;;4993917;28;20046;-73
2022/08/20 05:03:31;;;;;;;24.45;12.00;;;666.00;2432.00;;;;;;4983965;28;20026;-74
2022/08/20 05:05:57;;;;;;;21.75;10.65;;;665.90;2432.00;;;;;;4973819;28;20070;-74
2022/08/20 05:08:24;;;;;;;24.20;10.65;;;665.90;2432.00;;;;;;4984040;28;20361;-82
2022/08/20 05:10:52;;;;;;;25.65;9.70;;;665.90;2432.00;;;;;;4994386;28;20122;-76
2022/08/20 05:13:18;;;;;;;23.15;9.63;;;665.90;2432.00;;;;;;4994005;28;20102;-75
2022/08/20 05:15:47;;;;;;;20.98;10.13;;;665.90;2432.00;;;;;;4993578;28;20113;-78
2022/08/20 05:18:19;;;;;;;16.63;9.73;;;666.00;2432.00;;;;;;4993402;28;20496;-83
2022/08/20 05:20:46;;;;;;;28.00;9.75;;;666.20;2432.00;;;;;;4993592;28;20156;-75
2022/08/20 05:23:13;;;;;;;24.85;10.45;;;666.30;2432.00;;;;;;4993846;28;20031;-83
2022/08/20 05:25:41;;;;;;;15.50;9.90;;;666.40;2432.00;;;;;;4994453;28;20014;-75
2022/08/20 05:28:11;;;;;;;19.60;9.93;;;666.30;2432.00;;;;;;4994145;28;20022;-85
2022/08/20 05:30:40;;;;;;;17.80;10.23;;;666.30;2432.00;;;;;;4993921;28;20165;-84
2022/08/20 05:33:08;;;;;;;22.88;11.02;;;666.20;2432.00;;;;;;4993918;28;20027;-75
2022/08/20 05:35:40;;;;;;;27.30;10.35;;;665.90;2432.00;;;;;;4976885;28;20092;-75
2022/08/20 05:38:09;;;;;;;18.55;10.73;;;665.90;2432.00;;;;;;4993530;28;20396;-77
2022/08/20 05:40:35;;;;;;;22.48;9.90;;;665.90;2432.00;;;;;;4993979;28;20114;-78
2022/08/20 05:43:03;;;;;;;19.10;9.65;;;665.90;2432.00;;;;;;4979547;28;20114;-78
2022/08/20 05:45:33;;;;;;;20.48;10.07;;;665.90;2432.00;;;;;;4980596;28;20022;-85
2022/08/20 05:48:06;;;;;;;23.25;10.20;;;665.90;2432.00;;;;;;5000411;28;20050;-87
2022/08/20 05:50:33;;;;;;;19.45;9.25;;;665.70;2432.00;;;;;;5000404;28;20056;-85
2022/08/20 05:53:00;;;;;;;24.48;9.25;;;665.70;2432.00;;;;;;5010258;28;20022;-76
2022/08/20 05:55:26;;;;;;;28.67;9.25;;;665.60;2432.00;;;;;;5009025;28;20041;-82
2022/08/20 05:58:00;;;;;;;17.98;9.35;;;665.70;2432.00;;;;;;5009288;28;20026;-84
2022/08/20 06:00:28;;;;;;;17.60;8.70;;;640.90;2432.00;;;;;;4991131;28;20019;-83
2022/08/20 06:05:38;;;;;;;22.73;9.43;;;640.30;2432.00;;;;;;5000865;28;20455;-85
2022/08/20 06:08:08;;;;;;;21.73;8.65;;;640.70;2432.00;;;;;;4982967;28;20023;-82
2022/08/20 06:10:35;;;;;;;16.08;9.13;;;640.60;2432.00;;;;;;4982954;28;20033;-78
2022/08/20 06:13:01;;;;;;;20.90;9.00;;;640.60;2432.00;;;;;;5000367;28;20064;-82
2022/08/20 06:15:28;;;;;;;23.08;9.02;;;640.60;2432.00;;;;;;5000289;28;20030;-85
2022/08/20 06:17:54;;;;;;;19.52;9.50;;;640.30;2432.00;;;;;;5000038;28;20487;-82
2022/08/20 06:20:20;;;;;;;16.27;7.68;;;640.90;2432.00;;;;;;4982852;28;20173;-78
2022/08/20 06:22:46;;;;;;;15.55;8.10;;;665.60;2432.00;;;;;;5000325;28;20031;-88
2022/08/20 06:25:12;;;;;;;19.98;9.00;;;665.60;2432.00;;;;;;4999976;28;20022;-87
2022/08/20 06:27:39;;;;;;;23.80;10.88;;;640.90;2432.00;;;;;;4982890;28;20502;-79
2022/08/20 06:30:06;;;;;;;22.90;10.20;;;640.90;2432.00;;;;;;4982662;28;20105;-78
2022/08/20 06:32:32;;;;;;;20.02;9.68;;;640.90;2432.00;;;;;;5000103;28;20033;-75
2022/08/20 06:35:01;;;;;;;22.15;9.82;;;640.80;2432.00;;;;;;5000036;28;20018;-84
2022/08/20 06:37:28;;;;;;;20.75;9.80;;;640.70;2432.00;;;;;;4999925;28;20546;-78
2022/08/20 06:39:54;;;;;;;17.83;9.75;;;640.40;2432.00;;;;;;4999855;28;20030;-76
2022/08/20 06:42:20;;;;;;;19.58;10.00;;;640.40;2432.00;;;;;;4999951;28;20154;-84
2022/08/20 06:44:49;;;;;;;16.35;9.40;;;640.40;2432.00;;;;;;4983128;28;20031;-84
2022/08/20 06:47:19;;;;;;;23.38;10.93;;;640.50;2432.00;;;;;;4982578;28;20113;-76
2022/08/20 06:49:46;;;;;;;22.42;10.60;;;640.60;2432.00;;;;;;4999958;28;20069;-80
2022/08/20 06:52:14;;;;;;;16.25;9.40;;;640.60;2432.00;;;;;;4982773;28;20084;-84
2022/08/20 06:54:40;;;;;;;23.08;9.60;;;640.70;2432.00;;;;;;4998663;28;20026;-85
2022/08/20 06:57:06;;;;;;;20.55;9.95;;;640.80;2432.00;;;;;;4980506;28;20125;-75
2022/08/20 06:59:32;;;;;;;20.55;12.23;;;665.60;2432.00;;;;;;4979613;28;20022;-85
2022/08/20 07:01:58;;;;;;;22.05;11.07;;;640.90;2432.00;;;;;;4997070;28;20027;-82
2022/08/20 07:04:25;;;;;;;20.13;9.75;;;640.90;2432.00;;;;;;4996932;28;20468;-84
2022/08/20 07:06:52;;;;;;;20.45;11.10;;;640.50;2432.00;;;;;;4996325;28;20491;-84
2022/08/20 07:09:18;;;;;;;27.80;12.65;;;640.40;2432.00;;;;;;4996588;28;20022;-85
2022/08/20 07:11:44;;;;;;;30.63;12.60;;;640.20;2432.00;;;;;;4996432;28;20549;-77
2022/08/20 07:14:10;;;;;;;30.33;13.35;;;640.10;2432.00;;;;;;4993290;28;20030;-77
2022/08/20 07:16:37;;;;;;;27.42;13.23;;;640.10;2432.00;;;;;;4983862;28;20085;-75
2022/08/20 07:33:59;;;;;;;29.50;15.43;;;615.30;2432.00;;;;;;5106768;27;20401;-80
2022/08/20 07:36:26;;;;;;;30.98;13.90;;;640.60;2432.00;;;;;;5100298;28;20028;-81
2022/08/20 07:38:53;;;;;;;32.00;15.65;;;640.90;2432.00;;;;;;5106630;28;20028;-80
2022/08/20 07:41:19;;;;;;;27.80;15.43;;;640.50;2432.00;;;;;;5107881;28;20388;-81
2022/08/20 07:43:46;;;;;;;24.25;13.90;;;640.40;2432.00;;;;;;5108320;28;20061;-83
2022/08/20 07:46:16;;;;;;;26.25;12.98;;;640.50;2432.00;;;;;;5105767;28;20476;-81
2022/08/20 07:48:48;;;;;;;38.97;17.67;;;640.50;2432.00;;;;;;5103174;28;20065;-79
2022/08/20 07:51:16;;;;;;;38.25;18.30;;;640.50;2432.00;;;;;;5108815;27;20086;-78
2022/08/20 07:53:43;;;;;;;30.98;16.65;;;640.40;2432.00;;;;;;5120240;28;20039;-80
2022/08/20 07:56:13;;;;;;;32.45;16.70;;;640.40;2432.00;;;;;;5093078;28;20032;-82
2022/08/20 07:58:48;;;;;;;26.17;15.02;;;640.30;2432.00;;;;;;5096188;28;20015;-78
2022/08/20 08:01:19;;;;;;;29.63;15.50;;;640.30;2432.00;;;;;;5091361;28;20082;-78
2022/08/20 08:03:45;;;;;;;35.42;15.50;;;640.00;2432.00;;;;;;5117752;28;20396;-79
2022/08/20 08:06:11;;;;;;;30.77;15.05;;;615.30;2432.00;;;;;;5095177;28;20016;-78
2022/08/20 08:08:39;;;;;;;29.55;13.80;;;615.30;2432.00;;;;;;5089560;28;20032;-79
2022/08/20 08:11:06;;;;;;;23.33;12.68;;;615.10;2432.00;;;;;;5087417;28;20024;-80
2022/08/20 08:13:40;;;;;;;27.98;14.63;;;615.10;2432.00;;;;;;5124592;27;20019;-77
2022/08/20 08:29:18;;;;;;;34.80;15.80;;;615.10;2432.00;;;;;;5060878;28;20392;-78
2022/08/20 08:31:43;;;;;;;29.48;14.40;;;640.20;2432.00;;;;;;5048964;28;20048;-78
2022/08/20 08:34:10;;;;;;;27.88;15.15;;;640.00;2432.00;;;;;;5049055;28;20033;-78
2022/08/20 08:36:38;;;;;;;27.48;15.02;;;615.30;2432.00;;;;;;5047538;28;20053;-78
2022/08/20 08:39:04;;;;;;;31.20;15.90;;;615.00;2432.00;;;;;;5049178;28;20096;-78
2022/08/20 08:41:33;;;;;;;31.52;15.15;;;615.20;2432.00;;;;;;5036760;28;20030;-78
2022/08/20 08:44:34;;;;;;;25.25;12.20;;;615.10;2432.00;;;;;;5045472;28;20060;-79
2022/08/20 08:47:17;;;;;;;28.02;11.70;;;615.10;2432.00;;;;;;4990809;28;20261;-78
2022/08/20 08:49:45;;;;;;;26.35;11.40;;;615.10;2432.00;;;;;;4990915;28;20022;-78
2022/08/20 08:52:31;;;;;;;25.30;11.18;;;615.00;2432.00;;;;;;4990345;28;20034;-79
2022/08/20 08:55:04;;;;;;;24.75;10.63;;;615.00;2432.00;;;;;;4990858;28;20580;-78
2022/08/20 08:57:30;;;;;;;23.05;11.25;;;615.00;2432.00;;;;;;4990507;28;20062;-78
2022/08/20 09:00:00;;;;;;;23.67;11.77;;;614.90;2432.00;;;;;;5007067;28;20148;-78
2022/08/20 09:02:28;;;;;;;26.60;12.07;;;614.80;2432.00;;;;;;5006702;28;20077;-78
2022/08/20 09:04:56;;;;;;;26.38;11.40;;;;;;;;;;5006597;28;20042;-78
2022/08/20 09:07:26;;;;;;;22.08;11.30;;;614.50;2432.00;;;;;;5007065;28;20112;-77
2022/08/20 09:09:52;;;;;;;17.95;11.73;;;614.50;2432.00;;;;;;5006818;28;20038;-77
2022/08/20 09:12:21;;;;;;;18.30;11.93;;;614.70;2432.00;;;;;;5006958;28;20023;-78
2022/08/20 09:14:48;;;;;;;23.98;12.02;;;614.80;2432.00;;;;;;4983401;28;20030;-77
2022/08/20 09:17:16;;;;;;;25.55;11.32;;;614.90;2432.00;;;;;;5005851;28;20093;-78
2022/08/20 09:19:42;;;;;;;20.63;10.95;;;615.00;2432.00;;;;;;4973067;28;20021;-77
2022/08/20 09:22:17;;;;;;;30.10;14.32;;;615.00;2432.00;;;;;;4989616;28;20034;-79
2022/08/20 09:24:43;;;;;;;25.00;12.87;;;614.80;2432.00;;;;;;5032943;28;20117;-78
2022/08/20 09:27:09;;;;;;;34.55;15.48;;;614.80;2432.00;;;;;;5028805;28;20033;-78
2022/08/20 09:29:35;;;;;;;25.55;13.05;;;614.50;2432.00;;;;;;5018972;28;20022;-78
2022/08/20 09:32:04;;;;;;;27.02;15.13;;;614.50;2432.00;;;;;;5013304;28;20052;-77
2022/08/20 09:34:33;;;;;;;27.15;15.38;;;614.50;2432.00;;;;;;5049555;28;20037;-76
2022/08/20 09:36:59;;;;;;;24.92;14.73;;;614.40;2432.00;;;;;;5034878;28;20491;-78
2022/08/20 09:39:24;;;;;;;24.08;13.68;;;614.40;2432.00;;;;;;5033500;28;20079;-77
2022/08/20 09:41:50;;;;;;;38.00;16.38;;;589.60;2432.00;;;;;;5033539;28;20411;-78
2022/08/20 09:44:16;;;;;;;28.58;14.70;;;589.60;2432.00;;;;;;5034364;28;20471;-76
2022/08/20 09:46:41;;;;;;;49.55;18.52;;;589.60;2432.00;;;;;;5034904;28;20022;-78
2022/08/20 09:49:07;;;;;;;48.50;18.63;;;589.60;2432.00;;;;;;5019538;28;20531;-78
2022/08/20 09:51:33;;;;;;;35.60;16.50;;;614.40;2432.00;;;;;;5030428;28;20026;-77
2022/08/20 09:53:58;;;;;;;46.17;19.73;;;614.50;2432.00;;;;;;5021343;28;20109;-77
2022/08/20 09:56:33;;;;;;;33.30;17.58;;;614.40;2432.00;;;;;;5034529;28;20112;-77
2022/08/20 09:58:59;;;;;;;33.72;15.70;;;614.40;2432.00;;;;;;5034179;28;20033;-77
2022/08/20 10:01:25;;;;;;;29.70;16.17;;;614.50;2432.00;;;;;;5034148;28;20037;-77
2022/08/20 10:03:50;;;;;;;23.80;15.88;;;614.70;2432.00;;;;;;5028864;28;20022;-77
2022/08/20 10:06:19;;;;;;;29.70;15.32;;;614.70;2432.00;;;;;;5012635;28;20065;-77
2022/08/20 10:08:44;;;;;;;26.38;12.45;;;614.60;2432.00;;;;;;5019308;28;20021;-78
2022/08/20 10:11:10;;;;;;;26.13;13.73;;;614.50;2432.00;;;;;;5025240;28;20034;-77
2022/08/20 10:13:36;;;;;;;27.40;13.13;;;614.60;2432.00;;;;;;5024782;28;20041;-77
2022/08/20 10:16:02;;;;;;;25.05;13.80;;;614.70;2432.00;;;;;;5031822;28;20037;-77
2022/08/20 10:18:27;;;;;;;22.90;13.07;;;614.60;2432.00;;;;;;5033814;28;20024;-76
2022/08/20 10:20:53;;;;;;;19.65;12.93;;;614.60;2432.00;;;;;;5027697;28;20506;-76
2022/08/20 10:23:19;;;;;;;20.10;12.05;;;614.70;2432.00;;;;;;5029857;28;20088;-76
2022/08/20 10:25:45;;;;;;;24.02;12.63;;;614.80;2432.00;;;;;;5033759;28;20032;-77
2022/08/20 10:28:11;;;;;;;29.25;12.13;;;614.80;2432.00;;;;;;5032044;28;20050;-77
2022/08/20 10:30:37;;;;;;;28.42;13.20;;;614.80;2432.00;;;;;;5031001;28;20391;-77
2022/08/20 10:33:03;;;;;;;20.45;12.15;;;614.80;2432.00;;;;;;5015578;28;20037;-77
2022/08/20 10:35:28;;;;;;;22.88;12.25;;;615.00;2432.00;;;;;;5012111;28;20034;-76
2022/08/20 10:37:54;;;;;;;22.30;12.00;;;615.30;2432.00;;;;;;5021220;28;20041;-77
2022/08/20 10:40:20;;;;;;;27.73;12.68;;;615.00;2432.00;;;;;;5015607;28;20034;-77
2022/08/20 10:42:46;;;;;;;24.10;12.70;;;615.00;2432.00;;;;;;5018733;28;20028;-75
2022/08/20 10:45:14;;;;;;;21.10;12.10;;;615.00;2432.00;;;;;;5018793;28;20037;-75
2022/08/20 10:47:41;;;;;;;24.98;13.93;;;614.90;2432.00;;;;;;5022288;28;20033;-76
2022/08/20 10:50:10;;;;;;;27.20;13.48;;;614.90;2432.00;;;;;;5028225;28;20030;-76
2022/08/20 10:52:36;;;;;;;23.42;14.02;;;615.00;2432.00;;;;;;5023611;28;20058;-78
2022/08/20 10:55:03;;;;;;;19.92;13.60;;;615.00;2432.00;;;;;;5026700;28;20554;-76
2022/08/20 10:57:30;;;;;;;27.60;14.25;;;615.20;2432.00;;;;;;5025521;28;20064;-75
2022/08/20 10:59:58;;;;;;;25.35;13.45;;;615.20;2432.00;;;;;;5026131;28;20029;-76
2022/08/20 11:02:24;;;;;;;21.90;12.77;;;615.30;2432.00;;;;;;5033195;28;20033;-78
2022/08/20 11:04:51;;;;;;;23.95;13.15;;;615.30;2432.00;;;;;;5032347;28;20033;-76
2022/08/20 11:07:19;;;;;;;22.83;12.13;;;640.00;2432.00;;;;;;5031838;28;20033;-74
2022/08/20 11:09:47;;;;;;;24.30;13.20;;;640.10;2432.00;;;;;;5030094;28;20022;-77
2022/08/20 11:12:13;;;;;;;23.25;12.52;;;640.20;2432.00;;;;;;5022571;28;20033;-74
2022/08/20 11:14:39;;;;;;;21.85;10.95;;;640.20;2432.00;;;;;;5011408;28;20052;-75
2022/08/20 11:17:06;;;;;;;20.85;12.48;;;640.30;2432.00;;;;;;5026764;28;20065;-77
2022/08/20 11:19:32;;;;;;;22.45;13.63;;;640.20;2432.00;;;;;;5016485;28;20030;-75
2022/08/20 11:21:58;;;;;;;19.05;10.90;;;640.60;2432.00;;;;;;5029898;28;20029;-75
2022/08/20 11:24:23;;;;;;;18.42;11.27;;;640.90;2432.00;;;;;;5032689;28;20045;-75
2022/08/20 11:26:52;;;;;;;18.42;10.98;;;665.60;2432.00;;;;;;5032262;28;20021;-76
2022/08/20 11:29:21;;;;;;;19.50;10.98;;;640.90;2432.00;;;;;;5018937;28;20173;-76
2022/08/20 11:31:47;;;;;;;17.27;10.55;;;665.70;2432.00;;;;;;5014302;28;20160;-76
2022/08/20 11:34:12;;;;;;;23.05;11.55;;;665.60;2432.00;;;;;;5012664;28;20030;-77
2022/08/20 11:36:39;;;;;;;21.33;11.50;;;640.90;2432.00;;;;;;5024956;28;20052;-75
2022/08/20 11:39:05;;;;;;;26.23;12.70;;;665.60;2432.00;;;;;;5028431;28;20025;-75
2022/08/20 11:41:30;;;;;;;28.05;12.68;;;640.80;2432.00;;;;;;5026719;28;20498;-75
2022/08/20 11:43:56;;;;;;;16.77;11.45;;;640.90;2432.00;;;;;;5026407;28;20036;-78
2022/08/20 11:46:22;;;;;;;23.63;11.98;;;640.90;2432.00;;;;;;5026069;28;20029;-75
2022/08/20 11:48:47;;;;;;;17.58;12.60;;;665.90;2432.00;;;;;;5028940;28;20022;-76
2022/08/20 11:51:13;;;;;;;21.35;12.20;;;665.60;2432.00;;;;;;5014696;28;20439;-74
2022/08/20 11:53:39;;;;;;;20.05;12.43;;;665.60;2432.00;;;;;;5015654;28;20108;-75
2022/08/20 12:33:04;;;;;;;17.90;9.07;;;691.20;2432.00;;;;;;5123397;27;20122;-77
2022/08/20 12:35:30;;;;;;;15.68;9.48;;;716.80;2432.00;;;;;;5114146;28;20388;-80
2022/08/20 12:37:56;;;;;;;20.05;10.50;;;692.10;2432.00;;;;;;5109556;28;20020;-79
2022/08/20 12:40:26;;;;;;;20.83;9.80;;;691.80;2432.00;;;;;;5108947;28;20080;-79
2022/08/20 12:42:51;;;;;;;18.08;8.82;;;691.60;2432.00;;;;;;5116639;27;20032;-78
2022/08/20 12:45:17;;;;;;;22.77;11.57;;;691.40;2432.00;;;;;;5109764;28;20417;-79
2022/08/20 12:47:46;;;;;;;20.40;11.07;;;691.40;2432.00;;;;;;5122076;28;20502;-80
2022/08/20 12:50:15;;;;;;;23.30;11.43;;;691.20;2432.00;;;;;;5094950;28;20133;-81
2022/08/20 12:52:41;;;;;;;19.17;12.50;;;691.20;2432.00;;;;;;5107338;28;20024;-80
2022/08/20 12:55:12;;;;;;;19.13;10.75;;;666.50;2432.00;;;;;;5106482;28;20476;-78
2022/08/20 12:57:42;;;;;;;21.70;11.07;;;666.50;2432.00;;;;;;5107899;28;20109;-78
2022/08/20 13:00:12;;;;;;;19.95;11.25;;;691.20;2432.00;;;;;;5104539;28;20395;-78
2022/08/20 13:02:40;;;;;;;19.48;10.60;;;691.20;2432.00;;;;;;5108369;28;20047;-79
2022/08/20 13:05:10;;;;;;;20.08;11.88;;;691.20;2432.00;;;;;;5107902;28;20365;-76
2022/08/20 13:07:37;;;;;;;19.83;12.50;;;691.20;2432.00;;;;;;5109219;28;20089;-78
2022/08/20 13:10:04;;;;;;;22.55;13.80;;;666.50;2432.00;;;;;;5107816;28;20026;-80
2022/08/20 13:12:30;;;;;;;21.73;12.93;;;666.50;2432.00;;;;;;5106872;28;20028;-78
2022/08/20 13:14:56;;;;;;;24.60;14.40;;;666.50;2432.00;;;;;;5108917;28;20418;-78